< Typhoon 201911 2019 Season Typhoon 201913 >
Typhoon 201912 (PODUL)
General InformationTrack Information on Google MapsDetailed Wind InformationForecast History on Google MapsAccess Analytics MapList of All Images || NewsDisaster Info.WeblogTrackbackTyphoon FrontTwiphoonTyphoon Now!Typhoon ImaginationJMA Disaster Info. XMLResourceGoogle EarthGE AnimationAtom FeedGeoJSON
Detalied Best Track (Time Zone = UTC)
Year Month Day Hour Lat. Long. Pressure (hPa) Wind (kt) Class Image Chart
2019 8 24 06 8.4 142.5 1004 0 2 Image Chart
2019 8 24 12 8.1 140.0 1006 0 2 Image Chart
2019 8 24 18 8.3 138.6 1006 0 2 Image Chart
2019 8 25 00 11.0 137.7 1006 0 2 Image Chart
2019 8 25 06 12.0 136.9 1004 0 2 Image Chart
2019 8 25 12 12.4 135.5 1004 0 2 Image Chart
2019 8 25 18 12.5 133.6 1002 0 2 Image Chart
2019 8 26 00 12.8 132.2 1002 0 2 Image Chart
2019 8 26 06 13.1 130.8 1000 0 2 Image Chart
2019 8 26 12 13.5 129.5 1002 0 2 Image Chart
2019 8 26 18 13.5 128.2 1002 0 2 Image Chart
2019 8 27 00 14.4 126.5 1002 0 2 Image Chart
2019 8 27 06 15.4 124.2 1000 0 2 Image Chart
2019 8 27 12 16.0 121.9 1002 0 2 Image Chart
2019 8 27 18 16.1 119.6 1000 0 2 Image Chart
2019 8 28 00 16.5 117.3 998 35 3 Image Chart
2019 8 28 06 16.6 116.0 996 40 3 Image Chart
2019 8 28 12 16.9 114.5 994 40 3 Image Chart
2019 8 28 18 17.2 113.2 994 40 3 Image Chart
2019 8 29 00 17.5 111.1 994 40 3 Image Chart
2019 8 29 06 17.5 109.1 992 40 3 Image Chart
2019 8 29 12 17.6 108.3 992 40 3 Image Chart
2019 8 29 18 17.4 106.3 994 35 3 Image Chart
2019 8 30 00 16.8 105.1 994 0 2 Image Chart
2019 8 30 06 16.7 103.3 996 0 2 Image Chart
2019 8 30 12 16.7 102.7 996 0 2 Image Chart
2019 8 30 18 17.3 102.6 998 0 2 Image Chart
2019 8 31 00 17.9 102.1 1000 0 2 Image Chart
Japan Meteorological Agency Best Track Data | Correction Date : 2019-10-04
< Typhoon 201911 2019 Season Typhoon 201913 >

Help